Tea, South Dakota
Current Conditions -  °F | °C
As of 7:37 AM on Saturday 20 Dec 2014 (Local Time) from KFSD Reporting Station
Haze Haze  
Wind Chill: 23°   Ceiling: 700
Heat Index: 31°   Visibility: 2mi
Dew Point: 29°   Wind: 9mph
Humidity: 92%   Direction: 170°S
Pressure: 30.06"   Gusts: NA
Location:  43.45°N, 96.84°W
Report Text: KFSD 201337Z 17008KT 2SM BR BKN007 OVC011 M01/M02 A3006 RMK AO2 SFC VIS 5 CIG 006V010 T10061017
Loading
Personal Weather Stations






























Interactive Weather Map New forecast layout! Learn more

10-Day Weather Forecast

Advertisements
Track Severe Weather on mobile